Terminal Aerodrome Forecast
Issued by NWS Portland, OR

Home | Current Version | Previous Version | Text Only | Print | Product List | Glossary On
Versions: 1 2 3 4 5 6 7 8 9 10 11 12
000
FTUS46 KPQR 312330
TAFEUG
TAF
KEUG 312330Z 0100/0124 03009KT P6SM SCT250
     FM010400 VRB04KT P6SM SCT250
     FM010700 19003KT P6SM SCT250
     FM011700 02005KT P6SM BKN250
     FM012100 33007KT P6SM BKN250=

USA.gov is the U.S. government's official web portal to all federal, state and local government web resources and services.